Time;durP1;ratioP1;P1;durP2;ratioP2;P2;SDS_P1;SDS_P2;PMS_P1;PMS_P2;Temp;Humidity;BMP_temperature;BMP_pressure;BME280_temperature;BME280_humidity;BME280_pressure;Samples;Min_cycle;Max_cycle;Signal;HPM_P1;HPM_P2
2021/12/29 00:01:23;;;;;;;16.83;3.17;;;9.90;99.90;;;;;;5035371;28;20112;-63
2021/12/29 00:03:49;;;;;;;12.88;2.35;;;9.90;99.90;;;;;;5034955;28;20037;-63
2021/12/29 00:06:15;;;;;;;13.90;2.75;;;9.80;99.90;;;;;;5033574;28;20029;-63
2021/12/29 00:08:41;;;;;;;19.90;2.10;;;9.80;99.90;;;;;;5034891;28;20075;-63
2021/12/29 00:11:07;;;;;;;17.13;2.57;;;9.80;99.90;;;;;;5034908;28;20479;-63
2021/12/29 00:13:33;;;;;;;16.73;2.85;;;9.80;99.90;;;;;;5034714;28;20478;-64
2021/12/29 00:16:00;;;;;;;13.65;2.30;;;9.80;99.90;;;;;;5034594;28;20030;-63
2021/12/29 00:18:28;;;;;;;16.98;2.63;;;9.80;99.90;;;;;;5034596;28;20105;-64
2021/12/29 00:20:56;;;;;;;14.88;2.72;;;9.80;99.90;;;;;;5035037;28;20021;-63
2021/12/29 00:23:22;;;;;;;21.40;2.78;;;9.70;99.90;;;;;;5034575;28;20033;-64
2021/12/29 00:25:47;;;;;;;17.13;2.42;;;9.70;99.90;;;;;;5034612;28;20323;-63
2021/12/29 00:28:15;;;;;;;7.88;2.10;;;9.70;99.90;;;;;;5035233;28;20033;-63
2021/12/29 00:30:41;;;;;;;17.40;2.95;;;9.70;99.90;;;;;;5034065;28;20033;-63
2021/12/29 00:33:07;;;;;;;14.57;3.00;;;9.70;99.90;;;;;;5033673;28;20030;-63
2021/12/29 00:35:35;;;;;;;16.00;2.53;;;9.70;99.90;;;;;;5034331;28;20033;-64
2021/12/29 00:38:02;;;;;;;21.85;2.95;;;9.70;99.90;;;;;;5034585;28;20486;-64
2021/12/29 00:40:29;;;;;;;16.60;1.95;;;9.70;99.90;;;;;;5032989;28;20034;-63
2021/12/29 00:42:55;;;;;;;;;;;9.70;99.90;;;;;;5035052;28;20021;-63
2021/12/29 00:45:20;;;;;;;14.57;2.00;;;9.80;99.90;;;;;;5033331;28;19912;-63
2021/12/29 00:47:48;;;;;;;20.17;2.35;;;9.70;99.90;;;;;;5034304;28;20092;-63
2021/12/29 00:50:15;;;;;;;19.83;4.68;;;9.70;99.90;;;;;;5034352;28;20026;-64
2021/12/29 00:52:44;;;;;;;16.20;4.40;;;9.70;99.90;;;;;;5035435;28;20029;-64
2021/12/29 00:55:10;;;;;;;11.45;1.83;;;9.70;99.90;;;;;;5035993;28;20082;-63
2021/12/29 00:57:36;;;;;;;18.02;2.95;;;9.70;99.90;;;;;;5049741;23;20005;-71
2021/12/29 01:00:06;;;;;;;15.98;2.45;;;9.70;99.90;;;;;;5035636;28;20072;-70
2021/12/29 01:02:31;;;;;;;10.93;2.38;;;9.70;99.90;;;;;;5035306;28;20024;-70
2021/12/29 01:04:57;;;;;;;17.07;3.17;;;9.70;99.90;;;;;;5035935;28;20101;-70
2021/12/29 01:07:23;;;;;;;12.57;1.80;;;9.70;99.90;;;;;;5034947;28;20033;-70
2021/12/29 01:09:48;;;;;;;11.63;2.60;;;9.70;99.90;;;;;;5033595;28;20466;-70
2021/12/29 01:12:17;;;;;;;10.60;1.80;;;9.80;99.90;;;;;;5034127;28;20035;-70
2021/12/29 01:14:51;;;;;;;14.10;1.85;;;9.70;99.90;;;;;;5032946;28;20472;-69
2021/12/29 01:17:17;;;;;;;11.23;1.63;;;9.70;99.90;;;;;;5038842;28;20044;-70
2021/12/29 01:19:42;;;;;;;17.83;2.67;;;9.70;99.90;;;;;;5040395;28;20026;-70
2021/12/29 01:22:08;;;;;;;15.10;1.90;;;9.70;99.90;;;;;;5035862;28;20428;-70
2021/12/29 01:24:34;;;;;;;10.13;1.80;;;9.70;99.90;;;;;;5031975;28;20033;-70
2021/12/29 01:27:00;;;;;;;12.37;1.63;;;9.70;99.90;;;;;;5033308;28;20037;-70
2021/12/29 01:29:26;;;;;;;10.68;1.65;;;9.60;99.90;;;;;;5031791;28;20477;-69
2021/12/29 01:31:52;;;;;;;18.80;2.03;;;9.60;99.90;;;;;;5033014;28;20482;-70
2021/12/29 01:34:19;;;;;;;10.68;1.98;;;9.60;99.90;;;;;;5033111;28;20028;-70
2021/12/29 01:36:45;;;;;;;11.85;1.80;;;9.60;99.90;;;;;;5033397;28;20398;-69
2021/12/29 01:39:14;;;;;;;14.63;2.10;;;9.60;99.90;;;;;;5033117;28;20025;-69
2021/12/29 01:41:41;;;;;;;12.63;1.75;;;9.60;99.90;;;;;;5032394;28;20275;-70
2021/12/29 01:44:08;;;;;;;;;;;9.50;99.90;;;;;;5032663;28;20025;-69
2021/12/29 01:46:34;;;;;;;9.02;1.73;;;9.60;99.90;;;;;;5034585;28;19909;-69
2021/12/29 01:48:59;;;;;;;13.60;2.65;;;9.60;99.90;;;;;;5033165;28;20518;-70
2021/12/29 01:51:25;;;;;;;11.87;1.60;;;9.50;99.90;;;;;;5031871;28;20024;-69
2021/12/29 01:54:04;;;;;;;9.98;1.77;;;9.50;99.90;;;;;;5032017;28;20029;-69
2021/12/29 01:56:31;;;;;;;10.57;1.83;;;9.60;99.90;;;;;;5031738;28;20038;-70
2021/12/29 01:58:57;;;;;;;13.25;1.75;;;9.50;99.90;;;;;;5032618;28;20033;-68
2021/12/29 02:01:23;;;;;;;11.05;2.00;;;9.60;99.90;;;;;;5031807;28;20116;-70
2021/12/29 02:03:50;;;;;;;8.15;1.48;;;9.60;99.90;;;;;;5031738;28;20037;-70
2021/12/29 02:06:16;;;;;;;13.68;1.83;;;9.60;99.90;;;;;;5032774;28;20022;-70
2021/12/29 02:08:42;;;;;;;10.67;2.10;;;9.60;99.90;;;;;;5033587;28;20516;-70
2021/12/29 02:11:08;;;;;;;8.83;1.57;;;9.50;99.90;;;;;;5031295;28;20845;-69
2021/12/29 02:13:34;;;;;;;12.90;2.00;;;9.60;99.90;;;;;;5034664;28;20028;-69
2021/12/29 02:16:00;;;;;;;10.65;1.67;;;9.50;99.90;;;;;;5036728;28;20033;-70
2021/12/29 02:18:26;;;;;;;13.02;3.20;;;9.50;99.90;;;;;;5036533;28;20029;-70
2021/12/29 02:20:55;;;;;;;10.35;2.40;;;9.50;99.90;;;;;;5036578;28;20139;-70
2021/12/29 02:23:45;;;;;;;11.45;2.03;;;9.50;99.90;;;;;;5035437;28;20029;-70
2021/12/29 02:26:13;;;;;;;12.70;1.95;;;9.50;99.90;;;;;;5035499;28;20447;-70
2021/12/29 02:28:41;;;;;;;9.35;2.70;;;9.60;99.90;;;;;;5034966;28;20052;-70
2021/12/29 02:31:07;;;;;;;10.23;2.60;;;9.50;99.90;;;;;;5036357;28;20052;-70
2021/12/29 02:33:34;;;;;;;17.63;5.00;;;9.50;99.90;;;;;;5036379;28;20072;-69
2021/12/29 02:36:04;;;;;;;11.73;2.13;;;9.50;99.90;;;;;;5034705;28;20033;-69
2021/12/29 02:38:35;;;;;;;12.57;1.70;;;9.50;99.90;;;;;;5035984;28;20112;-70
2021/12/29 02:41:04;;;;;;;16.80;5.13;;;9.50;99.90;;;;;;5034801;28;20121;-69
2021/12/29 02:43:32;;;;;;;10.07;1.75;;;9.50;99.90;;;;;;5035923;28;20072;-69
2021/12/29 02:45:58;;;;;;;15.63;1.95;;;9.50;99.90;;;;;;5034529;28;20021;-69
2021/12/29 02:48:31;;;;;;;12.20;2.88;;;9.50;99.90;;;;;;5034606;28;20025;-69
2021/12/29 02:50:58;;;;;;;12.35;2.15;;;9.50;99.90;;;;;;5036173;28;20025;-70
2021/12/29 02:53:25;;;;;;;11.20;1.67;;;9.50;99.90;;;;;;5035903;28;20017;-70
2021/12/29 02:55:52;;;;;;;13.18;2.20;;;9.50;99.90;;;;;;5034677;28;20051;-69
2021/12/29 02:58:18;;;;;;;10.13;2.35;;;9.50;99.90;;;;;;5035792;28;20420;-68
2021/12/29 03:00:44;;;;;;;12.10;2.63;;;9.50;99.90;;;;;;5034547;28;20130;-69
2021/12/29 03:03:19;;;;;;;12.17;3.17;;;9.50;99.90;;;;;;5034351;28;20164;-69
2021/12/29 03:05:46;;;;;;;8.30;1.38;;;9.50;99.90;;;;;;5035500;28;20033;-70
2021/12/29 03:08:12;;;;;;;;;;;9.50;99.90;;;;;;5036317;28;20021;-69
2021/12/29 03:10:38;;;;;;;8.38;1.50;;;9.50;99.90;;;;;;5035705;28;19911;-69
2021/12/29 03:13:04;;;;;;;6.63;1.17;;;9.50;99.90;;;;;;5035514;28;20018;-69
2021/12/29 03:15:30;;;;;;;7.25;1.60;;;9.60;99.90;;;;;;5035635;28;20426;-69
2021/12/29 03:17:55;;;;;;;9.40;1.33;;;9.50;99.90;;;;;;5035411;28;20053;-70
2021/12/29 03:20:21;;;;;;;5.63;1.17;;;9.50;99.90;;;;;;5035349;28;20121;-69
2021/12/29 03:22:47;;;;;;;13.00;1.13;;;9.50;99.90;;;;;;5034248;28;20501;-70
2021/12/29 03:25:12;;;;;;;3.90;1.20;;;9.50;99.90;;;;;;5035307;28;20264;-69
2021/12/29 03:27:38;;;;;;;6.20;1.27;;;9.50;99.90;;;;;;5035091;28;20025;-69
2021/12/29 03:30:04;;;;;;;7.53;1.40;;;9.50;99.90;;;;;;5035486;28;20029;-69
2021/12/29 03:33:03;;;;;;;8.00;1.98;;;9.40;99.90;;;;;;5035371;28;20143;-69
2021/12/29 03:35:21;;;;;;;4.15;0.93;;;9.40;99.90;;;;;;5033879;28;20030;-69
2021/12/29 03:37:47;;;;;;;8.13;2.33;;;9.30;99.90;;;;;;5033870;28;20085;-69
2021/12/29 03:40:13;;;;;;;6.93;1.50;;;9.30;99.90;;;;;;5035364;28;20462;-69
2021/12/29 03:42:38;;;;;;;4.32;1.20;;;9.30;99.90;;;;;;5034876;28;20025;-69
2021/12/29 03:45:05;;;;;;;4.00;0.77;;;9.30;99.90;;;;;;5033630;28;20191;-70
2021/12/29 03:47:32;;;;;;;5.32;1.40;;;9.30;99.90;;;;;;5034912;28;20096;-70
2021/12/29 03:49:58;;;;;;;4.88;0.80;;;9.30;99.90;;;;;;5034969;28;20363;-70
2021/12/29 03:52:23;;;;;;;5.00;0.90;;;9.30;99.90;;;;;;5034819;28;20076;-70
2021/12/29 03:54:49;;;;;;;4.10;0.80;;;9.30;99.90;;;;;;5035064;28;20470;-69
2021/12/29 03:57:14;;;;;;;7.40;1.50;;;9.30;99.90;;;;;;5034992;28;20048;-69
2021/12/29 03:59:40;;;;;;;5.83;0.97;;;9.30;99.90;;;;;;5034993;28;20128;-69
2021/12/29 04:02:06;;;;;;;5.43;1.10;;;9.30;99.90;;;;;;5034665;28;20029;-69
2021/12/29 04:04:32;;;;;;;6.45;0.95;;;9.30;99.90;;;;;;5033330;28;20524;-69
2021/12/29 04:06:57;;;;;;;2.47;1.00;;;9.30;99.90;;;;;;5034559;28;20030;-69
2021/12/29 04:09:23;;;;;;;6.20;0.90;;;9.30;99.90;;;;;;5033306;28;20021;-69
2021/12/29 04:11:50;;;;;;;4.75;1.33;;;9.30;99.90;;;;;;5034957;28;20029;-69
2021/12/29 04:14:20;;;;;;;6.05;1.10;;;9.30;99.90;;;;;;5033059;28;20501;-69
2021/12/29 04:16:47;;;;;;;4.70;0.82;;;9.20;99.90;;;;;;5032980;28;20063;-69
2021/12/29 04:19:14;;;;;;;3.10;0.80;;;9.30;99.90;;;;;;5034261;28;20028;-69
2021/12/29 04:21:43;;;;;;;5.25;1.15;;;9.30;99.90;;;;;;5032886;28;20026;-69
2021/12/29 04:24:09;;;;;;;4.70;0.90;;;9.30;99.90;;;;;;5034353;28;20025;-69
2021/12/29 04:26:38;;;;;;;8.32;1.27;;;9.30;99.90;;;;;;5034490;28;20029;-70
2021/12/29 04:29:08;;;;;;;3.05;0.80;;;9.30;99.90;;;;;;5034103;28;20013;-70
2021/12/29 04:31:34;;;;;;;5.93;1.38;;;9.30;99.90;;;;;;5034449;28;20129;-71
2021/12/29 04:34:00;;;;;;;3.23;0.70;;;9.20;99.90;;;;;;5034718;28;20048;-70
2021/12/29 04:36:26;;;;;;;3.95;0.85;;;9.20;99.90;;;;;;5033379;28;20021;-70
2021/12/29 04:38:53;;;;;;;3.97;0.73;;;9.20;99.90;;;;;;5034024;28;20398;-70
2021/12/29 04:41:22;;;;;;;6.88;0.88;;;9.20;99.90;;;;;;5033781;28;20030;-70
2021/12/29 04:43:48;;;;;;;6.65;1.08;;;9.20;99.90;;;;;;5032592;28;20034;-70
2021/12/29 04:46:16;;;;;;;3.03;0.85;;;9.20;99.90;;;;;;5034013;28;20139;-70
2021/12/29 04:48:49;;;;;;;4.30;0.90;;;9.20;99.90;;;;;;5032318;28;20025;-69
2021/12/29 04:51:22;;;;;;;4.45;1.00;;;9.20;99.90;;;;;;5033713;28;20621;-69
2021/12/29 04:53:48;;;;;;;8.35;1.10;;;9.10;99.90;;;;;;5033610;28;20179;-69
2021/12/29 04:56:15;;;;;;;4.55;1.50;;;9.00;99.90;;;;;;5033978;28;20509;-70
2021/12/29 04:58:41;;;;;;;7.32;1.25;;;9.00;99.90;;;;;;5033224;28;20113;-69
2021/12/29 05:01:07;;;;;;;3.90;0.82;;;9.00;99.90;;;;;;5032224;28;20030;-69
2021/12/29 05:03:36;;;;;;;8.35;1.50;;;9.00;99.90;;;;;;5033493;28;20044;-69
2021/12/29 05:08:29;;;;;;;8.00;2.42;;;9.00;99.90;;;;;;5033385;28;20026;-69
2021/12/29 05:10:56;;;;;;;;;;;8.90;99.90;;;;;;5033787;28;20022;-70
2021/12/29 05:13:22;;;;;;;12.25;2.22;;;8.90;99.90;;;;;;5033429;28;19905;-69
2021/12/29 05:15:48;;;;;;;;;;;8.90;99.90;;;;;;5032590;28;20030;-69
2021/12/29 05:18:14;;;;;;;11.73;1.80;;;9.00;99.90;;;;;;5032649;28;19909;-69
2021/12/29 05:20:39;;;;;;;8.80;1.80;;;8.90;99.90;;;;;;5034078;28;20067;-69
2021/12/29 05:23:05;;;;;;;8.73;1.87;;;8.90;99.90;;;;;;5033633;28;20032;-69
2021/12/29 05:25:31;;;;;;;11.20;2.13;;;8.90;99.90;;;;;;5031821;28;20525;-70
2021/12/29 05:27:57;;;;;;;7.23;1.33;;;8.90;99.90;;;;;;5032006;28;20041;-69
2021/12/29 05:30:23;;;;;;;15.02;2.13;;;8.90;99.90;;;;;;5031893;28;20121;-69
2021/12/29 05:32:49;;;;;;;10.35;2.13;;;8.90;99.90;;;;;;5033104;28;20025;-69
2021/12/29 05:35:15;;;;;;;12.38;2.10;;;8.90;99.90;;;;;;5031959;28;20021;-70
2021/12/29 05:37:41;;;;;;;12.57;1.77;;;8.90;99.90;;;;;;5033083;28;20060;-70
2021/12/29 05:40:09;;;;;;;11.10;1.60;;;8.90;99.90;;;;;;5033084;28;20100;-70
2021/12/29 05:42:35;;;;;;;12.68;1.63;;;8.90;99.90;;;;;;5032921;28;20033;-70
2021/12/29 05:45:09;;;;;;;9.40;1.67;;;8.90;99.90;;;;;;5033389;28;20470;-70
2021/12/29 05:47:35;;;;;;;15.15;1.58;;;8.80;99.90;;;;;;5030528;28;20036;-70
2021/12/29 05:50:04;;;;;;;5.03;1.30;;;8.90;99.90;;;;;;5031554;28;20025;-70
2021/12/29 05:52:30;;;;;;;9.45;2.88;;;8.90;99.90;;;;;;5032791;28;20529;-70
2021/12/29 05:54:55;;;;;;;9.70;1.75;;;8.90;99.90;;;;;;5031259;28;20049;-70
2021/12/29 05:57:21;;;;;;;8.17;2.60;;;8.90;99.90;;;;;;5032713;28;20068;-70
2021/12/29 05:59:47;;;;;;;8.57;1.40;;;8.90;99.90;;;;;;5032644;28;20045;-70
2021/12/29 06:02:12;;;;;;;8.63;1.43;;;9.00;99.90;;;;;;5032608;28;20025;-70
2021/12/29 06:04:38;;;;;;;11.53;1.97;;;9.00;99.90;;;;;;5031426;28;20031;-70
2021/12/29 06:07:04;;;;;;;15.93;2.03;;;9.00;99.90;;;;;;5032693;28;20093;-70
2021/12/29 06:09:30;;;;;;;9.40;1.93;;;8.90;99.90;;;;;;5032624;28;20390;-70
2021/12/29 06:11:56;;;;;;;6.93;1.70;;;9.00;99.90;;;;;;5032682;28;20026;-70
2021/12/29 06:14:22;;;;;;;10.20;2.03;;;9.00;99.90;;;;;;5032619;28;20029;-70
2021/12/29 06:16:48;;;;;;;11.82;2.58;;;9.00;99.90;;;;;;5033052;28;20390;-70
2021/12/29 06:19:13;;;;;;;14.80;1.90;;;9.00;99.90;;;;;;5033044;28;20104;-70
2021/12/29 06:21:39;;;;;;;10.60;1.93;;;9.00;99.90;;;;;;5032888;28;20028;-70
2021/12/29 06:24:06;;;;;;;12.65;1.83;;;9.00;99.90;;;;;;5033031;28;20033;-70
2021/12/29 06:26:32;;;;;;;13.45;2.00;;;9.10;99.90;;;;;;5032815;28;20022;-70
2021/12/29 06:28:58;;;;;;;7.57;1.80;;;9.00;99.90;;;;;;5032474;28;20018;-69
2021/12/29 06:31:23;;;;;;;10.10;1.83;;;9.10;99.90;;;;;;5032642;28;20052;-69
2021/12/29 06:33:49;;;;;;;14.53;4.07;;;9.10;99.90;;;;;;5031760;28;20099;-69
2021/12/29 06:36:15;;;;;;;15.73;3.90;;;9.00;99.90;;;;;;5031288;28;20151;-70
2021/12/29 06:38:40;;;;;;;8.27;2.00;;;9.00;99.90;;;;;;5032749;28;20484;-69
2021/12/29 06:41:06;;;;;;;13.13;3.13;;;9.00;99.90;;;;;;5032565;28;20029;-69
2021/12/29 06:43:32;;;;;;;38.37;15.57;;;9.00;99.90;;;;;;5032875;28;20039;-68
2021/12/29 06:45:57;;;;;;;10.83;4.70;;;9.10;99.90;;;;;;5032463;28;20030;-68
2021/12/29 06:48:23;;;;;;;18.73;6.90;;;9.10;99.90;;;;;;5031300;28;20021;-69
2021/12/29 06:50:49;;;;;;;8.50;2.30;;;9.10;99.90;;;;;;5032703;28;20018;-69
2021/12/29 06:53:14;;;;;;;9.10;1.90;;;9.10;99.90;;;;;;5032951;28;20440;-69
2021/12/29 06:55:42;;;;;;;8.83;2.70;;;9.10;99.90;;;;;;5033743;28;20029;-70
2021/12/29 06:58:08;;;;;;;6.28;1.73;;;9.10;99.90;;;;;;5035863;28;20091;-69
2021/12/29 07:00:34;;;;;;;5.78;1.95;;;9.10;99.90;;;;;;5036405;28;20046;-69
2021/12/29 07:03:01;;;;;;;11.73;4.97;;;9.10;99.90;;;;;;5035070;28;20036;-70
2021/12/29 07:05:27;;;;;;;8.93;1.50;;;9.10;99.90;;;;;;5034919;28;20025;-70
2021/12/29 07:07:54;;;;;;;8.38;1.48;;;9.00;99.90;;;;;;5034961;28;20089;-69
2021/12/29 07:10:20;;;;;;;5.13;1.40;;;9.10;99.90;;;;;;5035961;28;20029;-69
2021/12/29 07:12:46;;;;;;;4.93;1.85;;;9.00;99.90;;;;;;5036064;28;20022;-69
2021/12/29 07:15:11;;;;;;;7.22;1.40;;;9.00;99.90;;;;;;5033326;28;20022;-70
2021/12/29 07:17:37;;;;;;;6.77;1.10;;;9.00;99.90;;;;;;5033985;28;20040;-70
2021/12/29 07:20:04;;;;;;;4.40;0.93;;;9.00;99.90;;;;;;5035797;28;20029;-69
2021/12/29 07:22:30;;;;;;;10.88;1.38;;;9.00;99.90;;;;;;5041620;28;20025;-71
2021/12/29 07:24:55;;;;;;;4.50;1.10;;;9.00;99.90;;;;;;5045659;28;20098;-69
2021/12/29 07:27:21;;;;;;;3.97;0.93;;;9.00;99.90;;;;;;5037648;28;20421;-70
2021/12/29 07:29:47;;;;;;;7.40;0.80;;;9.00;99.90;;;;;;5035503;28;20140;-69
2021/12/29 07:32:12;;;;;;;8.23;2.23;;;9.00;99.90;;;;;;5036400;28;20030;-69
2021/12/29 07:34:38;;;;;;;2.57;1.03;;;8.90;99.90;;;;;;5034156;28;20427;-69
2021/12/29 07:37:04;;;;;;;3.40;0.70;;;8.90;99.90;;;;;;5033918;28;20298;-69
2021/12/29 07:39:30;;;;;;;4.83;1.90;;;8.80;99.90;;;;;;5035758;28;20025;-68
2021/12/29 07:41:55;;;;;;;4.95;1.00;;;8.80;99.90;;;;;;5034323;28;20355;-69
2021/12/29 07:44:23;;;;;;;3.83;1.00;;;8.80;99.90;;;;;;5035672;28;20029;-70
2021/12/29 07:46:53;;;;;;;3.17;0.93;;;8.80;99.90;;;;;;5035303;28;20037;-69
2021/12/29 07:49:19;;;;;;;4.68;1.10;;;8.80;99.90;;;;;;5035389;28;20025;-71
2021/12/29 07:51:45;;;;;;;4.75;1.23;;;8.90;99.90;;;;;;5034323;28;20179;-70
2021/12/29 07:54:13;;;;;;;4.73;1.40;;;8.90;99.90;;;;;;5033623;28;20521;-69
2021/12/29 07:56:39;;;;;;;4.15;1.20;;;8.90;99.90;;;;;;5034836;28;20022;-69
2021/12/29 07:59:04;;;;;;;3.93;1.47;;;8.90;99.90;;;;;;5035070;28;20043;-69
2021/12/29 08:01:30;;;;;;;2.83;1.57;;;8.80;99.90;;;;;;5033496;28;20371;-70
2021/12/29 08:03:56;;;;;;;5.03;1.40;;;8.80;99.90;;;;;;5034451;28;20721;-70
2021/12/29 08:06:21;;;;;;;4.87;1.97;;;8.80;99.90;;;;;;5033090;28;20036;-69
2021/12/29 08:08:47;;;;;;;7.53;1.43;;;8.90;99.90;;;;;;5034202;28;20022;-69
2021/12/29 08:11:13;;;;;;;4.97;2.27;;;8.90;99.90;;;;;;5033789;28;20378;-69
2021/12/29 08:13:39;;;;;;;3.17;1.33;;;8.90;99.90;;;;;;5032934;28;20017;-69
2021/12/29 08:16:05;;;;;;;5.50;1.95;;;9.00;99.90;;;;;;5034161;28;20109;-70
2021/12/29 08:18:31;;;;;;;2.40;1.00;;;9.00;99.90;;;;;;5033037;28;20088;-73
2021/12/29 08:20:57;;;;;;;3.93;1.20;;;9.00;99.90;;;;;;5034460;28;20021;-69
2021/12/29 08:23:22;;;;;;;3.47;1.00;;;9.10;99.90;;;;;;5034941;28;20155;-70
2021/12/29 08:25:48;;;;;;;7.30;1.27;;;9.10;99.90;;;;;;5033842;28;20025;-71
2021/12/29 08:28:14;;;;;;;4.27;1.47;;;9.10;99.90;;;;;;5033381;28;20340;-71
2021/12/29 08:30:40;;;;;;;6.40;1.20;;;9.10;99.90;;;;;;5034355;28;20294;-70
2021/12/29 08:33:06;;;;;;;2.80;0.73;;;9.10;99.90;;;;;;5034244;28;20044;-69
2021/12/29 08:35:32;;;;;;;5.55;1.27;;;9.10;99.90;;;;;;5033793;28;20025;-69
2021/12/29 08:37:58;;;;;;;4.95;0.90;;;9.10;99.90;;;;;;5034199;28;20025;-70
2021/12/29 08:40:24;;;;;;;5.13;1.17;;;9.10;99.90;;;;;;5034599;28;20441;-70
2021/12/29 08:42:50;;;;;;;;;;;9.20;99.90;;;;;;5032825;28;20061;-70
2021/12/29 08:45:17;;;;;;;6.80;1.00;;;9.20;99.90;;;;;;5032551;28;20378;-70
2021/12/29 08:47:44;;;;;;;8.50;1.42;;;9.20;99.90;;;;;;5032218;28;20036;-70
2021/12/29 08:50:14;;;;;;;6.55;1.98;;;9.20;99.90;;;;;;5033534;28;20386;-71
2021/12/29 08:52:40;;;;;;;9.02;1.80;;;9.20;99.90;;;;;;5033969;28;20115;-69
2021/12/29 08:55:08;;;;;;;4.00;1.48;;;9.20;99.90;;;;;;5032544;28;20099;-70
2021/12/29 08:57:34;;;;;;;5.90;1.95;;;9.20;99.90;;;;;;5032921;28;20037;-70
2021/12/29 09:00:00;;;;;;;4.53;1.33;;;9.30;99.90;;;;;;5037328;28;20037;-70
2021/12/29 09:02:26;;;;;;;4.90;1.23;;;9.30;99.90;;;;;;5035710;28;20044;-70
2021/12/29 09:04:52;;;;;;;6.90;1.47;;;9.40;99.90;;;;;;5034895;28;20029;-70
2021/12/29 09:07:18;;;;;;;;;;;9.50;99.90;;;;;;5033935;28;20089;-70
2021/12/29 09:09:44;;;;;;;6.57;1.30;;;9.50;99.90;;;;;;5033517;28;19909;-70
2021/12/29 09:12:10;;;;;;;3.13;1.20;;;9.50;99.90;;;;;;5032166;28;20028;-70
2021/12/29 09:14:35;;;;;;;7.97;1.20;;;9.50;99.90;;;;;;5032182;28;20029;-70
2021/12/29 09:17:01;;;;;;;6.67;1.10;;;9.60;99.90;;;;;;5031975;28;20041;-70
2021/12/29 09:19:27;;;;;;;7.95;1.90;;;9.60;99.90;;;;;;5031775;28;20029;-70
2021/12/29 09:21:54;;;;;;;5.87;1.50;;;9.60;99.90;;;;;;5031959;28;20029;-70
2021/12/29 09:24:20;;;;;;;4.43;1.10;;;9.60;99.90;;;;;;5033524;28;20039;-69
2021/12/29 09:26:47;;;;;;;7.03;1.67;;;9.70;99.90;;;;;;5033589;28;20112;-70
2021/12/29 09:29:12;;;;;;;10.65;1.92;;;9.90;99.90;;;;;;5032853;28;20060;-68
2021/12/29 09:31:38;;;;;;;10.52;1.70;;;9.80;99.90;;;;;;5033720;28;20025;-69
2021/12/29 09:34:06;;;;;;;6.23;1.50;;;9.80;99.90;;;;;;5033546;28;20030;-69
2021/12/29 09:36:32;;;;;;;9.98;2.22;;;9.80;99.90;;;;;;5033599;28;20030;-70
2021/12/29 09:38:57;;;;;;;10.03;2.00;;;9.80;99.90;;;;;;5033310;28;20071;-70
2021/12/29 09:41:23;;;;;;;7.90;2.00;;;9.80;99.90;;;;;;5031908;28;20057;-69
2021/12/29 09:43:49;;;;;;;9.03;2.10;;;9.80;99.90;;;;;;5033616;28;20260;-69
2021/12/29 09:46:17;;;;;;;9.75;1.60;;;9.80;99.90;;;;;;5033546;28;20482;-69
2021/12/29 09:48:43;;;;;;;8.30;2.00;;;9.70;99.90;;;;;;5033919;28;20025;-69
2021/12/29 09:51:11;;;;;;;5.72;1.65;;;9.80;99.90;;;;;;5035711;28;20492;-69
2021/12/29 09:53:37;;;;;;;13.30;2.20;;;9.80;99.90;;;;;;5045121;28;20029;-69
2021/12/29 09:56:03;;;;;;;7.30;1.98;;;9.80;99.90;;;;;;5041738;28;20029;-70
2021/12/29 09:58:29;;;;;;;10.93;2.13;;;9.90;99.90;;;;;;5033206;28;20041;-70
2021/12/29 10:00:59;;;;;;;9.53;1.70;;;9.90;99.90;;;;;;5033277;28;20083;-70
2021/12/29 10:03:26;;;;;;;5.18;1.30;;;10.00;99.90;;;;;;5032975;28;20075;-69
2021/12/29 10:05:56;;;;;;;42.60;18.38;;;10.10;99.90;;;;;;5032768;28;20036;-69
2021/12/29 10:08:36;;;;;;;7.32;2.20;;;10.10;99.90;;;;;;5032914;28;20022;-68
2021/12/29 10:11:27;;;;;;;6.88;1.50;;;10.10;99.90;;;;;;5032591;28;20025;-68
2021/12/29 10:13:52;;;;;;;5.82;1.88;;;10.20;99.90;;;;;;5032802;28;20014;-69
2021/12/29 10:16:29;;;;;;;6.22;1.70;;;10.10;99.90;;;;;;5033646;28;20151;-68
2021/12/29 10:19:04;;;;;;;7.53;2.15;;;10.10;99.90;;;;;;5039827;28;20026;-68
2021/12/29 10:21:30;;;;;;;10.15;1.80;;;10.10;99.90;;;;;;5037296;28;20029;-68
2021/12/29 10:23:57;;;;;;;6.55;1.52;;;10.20;99.90;;;;;;5032203;28;20519;-69
2021/12/29 10:26:26;;;;;;;7.63;1.27;;;10.10;99.90;;;;;;5031057;28;20121;-70
2021/12/29 10:29:00;;;;;;;8.77;1.85;;;10.20;99.90;;;;;;5032591;28;20111;-68
2021/12/29 10:31:29;;;;;;;9.43;2.28;;;10.30;99.90;;;;;;5032761;28;20024;-68
2021/12/29 10:34:02;;;;;;;10.57;3.13;;;10.30;99.90;;;;;;5034600;28;20045;-69
2021/12/29 10:36:43;;;;;;;6.07;1.50;;;10.30;99.90;;;;;;5035781;28;20097;-69
2021/12/29 10:39:24;;;;;;;6.95;2.20;;;10.30;99.90;;;;;;5035964;28;20393;-69
2021/12/29 10:42:02;;;;;;;6.97;1.40;;;10.30;99.90;;;;;;5036045;28;20025;-69
2021/12/29 10:44:39;;;;;;;9.13;2.00;;;10.40;99.90;;;;;;5036320;28;20074;-68
2021/12/29 10:47:20;;;;;;;8.68;1.90;;;10.30;99.90;;;;;;5035782;28;20030;-69
2021/12/29 10:49:59;;;;;;;12.55;1.83;;;10.30;99.90;;;;;;5035739;28;20021;-70
2021/12/29 10:52:34;;;;;;;12.30;2.05;;;10.20;99.90;;;;;;5035639;28;20152;-69
2021/12/29 10:55:03;;;;;;;8.40;1.50;;;10.20;99.90;;;;;;5035958;28;20021;-68
2021/12/29 10:57:29;;;;;;;9.57;2.05;;;10.20;99.90;;;;;;5035741;28;20378;-68
2021/12/29 10:59:57;;;;;;;3.55;1.27;;;10.20;99.90;;;;;;5034325;28;20116;-68
2021/12/29 11:02:30;;;;;;;7.43;1.73;;;10.20;99.90;;;;;;5035492;28;20029;-67
2021/12/29 11:04:58;;;;;;;10.93;1.50;;;10.10;99.90;;;;;;5035760;28;20029;-67
2021/12/29 11:07:26;;;;;;;10.40;1.52;;;10.10;99.90;;;;;;5035666;28;20025;-67
2021/12/29 11:09:52;;;;;;;7.50;1.45;;;10.10;99.90;;;;;;5034468;28;20025;-67
2021/12/29 11:12:20;;;;;;;8.63;2.33;;;10.10;99.90;;;;;;5034305;28;20486;-66
2021/12/29 11:14:52;;;;;;;10.27;2.00;;;10.10;99.90;;;;;;5035728;28;20026;-69
2021/12/29 11:17:24;;;;;;;8.85;2.05;;;10.20;99.90;;;;;;5035534;28;20040;-68
2021/12/29 11:19:56;;;;;;;4.63;1.63;;;10.10;99.90;;;;;;5036401;28;20100;-68
2021/12/29 11:22:27;;;;;;;12.55;2.55;;;10.10;99.90;;;;;;5036393;28;20025;-67
2021/12/29 11:25:02;;;;;;;12.73;2.03;;;10.20;99.90;;;;;;5036495;28;20092;-70
2021/12/29 11:27:30;;;;;;;9.57;1.85;;;10.20;99.90;;;;;;5035122;28;20026;-73
2021/12/29 11:29:58;;;;;;;10.13;2.00;;;10.30;99.90;;;;;;5035052;28;20064;-72
2021/12/29 11:32:36;;;;;;;9.05;1.75;;;10.30;99.90;;;;;;5036159;28;20024;-69
2021/12/29 11:35:07;;;;;;;14.18;2.05;;;10.30;99.90;;;;;;5034378;28;20021;-70
2021/12/29 11:37:34;;;;;;;9.73;2.60;;;10.30;99.90;;;;;;5033930;28;20056;-70
2021/12/29 11:40:00;;;;;;;7.95;2.70;;;10.30;99.90;;;;;;5033887;28;20117;-70
2021/12/29 11:42:25;;;;;;;10.80;2.30;;;10.30;99.90;;;;;;5035181;28;20493;-71
2021/12/29 11:44:51;;;;;;;7.23;2.53;;;10.30;99.90;;;;;;5032713;28;20276;-70
2021/12/29 11:47:17;;;;;;;11.02;2.88;;;10.30;99.90;;;;;;5034784;28;20340;-69
2021/12/29 11:49:43;;;;;;;11.45;2.28;;;10.30;99.90;;;;;;5033539;28;20030;-70
2021/12/29 11:52:09;;;;;;;11.20;2.03;;;10.40;99.90;;;;;;5034727;28;20089;-70
2021/12/29 11:54:38;;;;;;;6.73;2.10;;;10.50;99.90;;;;;;5034958;28;20152;-70
2021/12/29 11:57:16;;;;;;;13.07;2.50;;;10.60;99.90;;;;;;5035371;28;20537;-70
2021/12/29 11:59:42;;;;;;;9.60;2.33;;;10.70;99.90;;;;;;5033431;28;20397;-71
2021/12/29 12:02:08;;;;;;;13.30;3.67;;;10.70;99.90;;;;;;5035016;28;20100;-69
2021/12/29 12:04:34;;;;;;;11.80;2.92;;;10.70;99.90;;;;;;5034713;28;20299;-69
2021/12/29 12:07:05;;;;;;;15.57;2.95;;;10.70;99.90;;;;;;5034350;28;20520;-70
2021/12/29 12:09:49;;;;;;;9.65;2.30;;;10.70;99.90;;;;;;5033111;28;20029;-70
2021/12/29 12:12:16;;;;;;;10.90;2.30;;;10.70;99.90;;;;;;5033406;28;20022;-69
2021/12/29 12:14:52;;;;;;;13.55;3.47;;;10.60;99.90;;;;;;5034602;28;20041;-69
2021/12/29 12:17:20;;;;;;;12.93;2.67;;;10.60;99.90;;;;;;5033336;28;20029;-68
2021/12/29 12:20:06;;;;;;;12.88;2.92;;;10.70;99.90;;;;;;5034203;28;20029;-68
2021/12/29 12:22:49;;;;;;;8.52;1.88;;;10.70;99.90;;;;;;5034825;28;20163;-68
2021/12/29 12:25:24;;;;;;;14.05;2.90;;;10.70;99.90;;;;;;5034627;28;20029;-67
2021/12/29 12:27:51;;;;;;;9.25;2.05;;;10.70;99.90;;;;;;5033789;28;20034;-69
2021/12/29 12:30:24;;;;;;;10.23;2.00;;;10.70;99.90;;;;;;5032701;28;20108;-69
2021/12/29 12:33:07;;;;;;;11.00;2.33;;;10.70;99.90;;;;;;5032566;28;20112;-69
2021/12/29 12:35:44;;;;;;;10.95;2.13;;;10.60;99.90;;;;;;5033744;28;20061;-70
2021/12/29 12:38:22;;;;;;;11.45;2.00;;;10.50;99.90;;;;;;5033654;28;20014;-69
2021/12/29 12:41:12;;;;;;;7.63;1.60;;;10.50;99.90;;;;;;5034141;28;20105;-69
2021/12/29 12:44:00;;;;;;;12.93;3.30;;;10.50;99.90;;;;;;5034067;28;20022;-67
2021/12/29 12:46:27;;;;;;;12.05;2.25;;;10.40;99.90;;;;;;5032862;28;20034;-70
2021/12/29 12:48:53;;;;;;;7.18;2.08;;;10.40;99.90;;;;;;5033756;28;20446;-69
2021/12/29 12:51:19;;;;;;;9.20;2.33;;;10.40;99.90;;;;;;5033996;28;20057;-69
2021/12/29 12:53:45;;;;;;;10.85;2.20;;;10.30;99.90;;;;;;5033679;28;20568;-69
2021/12/29 12:56:17;;;;;;;12.30;2.30;;;10.20;99.90;;;;;;5031718;28;20033;-69
2021/12/29 12:58:46;;;;;;;9.55;2.83;;;10.10;99.90;;;;;;5032542;28;20123;-69